sensor_id;sensor_type;location;lat;lon;timestamp;pressure;altitude;pressure_sealevel;temperature;humidity
7940;BME280;4015;48.888;9.226;2022-10-31T00:01:24;158564.72;;;13.22;99.88
7940;BME280;4015;48.888;9.226;2022-10-31T00:03:50;158530.13;;;13.08;100.00
7940;BME280;4015;48.888;9.226;2022-10-31T00:06:15;158470.00;;;12.84;100.00
7940;BME280;4015;48.888;9.226;2022-10-31T00:08:51;158473.81;;;12.86;100.00
7940;BME280;4015;48.888;9.226;2022-10-31T00:11:16;158507.06;;;12.99;100.00
7940;BME280;4015;48.888;9.226;2022-10-31T00:13:42;158513.50;;;13.02;100.00
7940;BME280;4015;48.888;9.226;2022-10-31T00:16:13;158512.22;;;13.01;100.00
7940;BME280;4015;48.888;9.226;2022-10-31T00:18:39;158446.94;;;12.75;100.00
7940;BME280;4015;48.888;9.226;2022-10-31T00:21:04;158445.66;;;12.75;100.00
7940;BME280;4015;48.888;9.226;2022-10-31T00:23:30;158458.47;;;12.80;100.00
7940;BME280;4015;48.888;9.226;2022-10-31T00:26:00;158475.09;;;12.86;100.00
7940;BME280;4015;48.888;9.226;2022-10-31T00:28:26;158484.06;;;12.90;100.00
7940;BME280;4015;48.888;9.226;2022-10-31T00:30:52;158468.72;;;12.84;100.00
7940;BME280;4015;48.888;9.226;2022-10-31T00:33:17;158443.13;;;12.74;100.00
7940;BME280;4015;48.888;9.226;2022-10-31T00:35:42;158420.13;;;12.64;100.00
7940;BME280;4015;48.888;9.226;2022-10-31T00:38:08;158454.66;;;12.78;100.00
7940;BME280;4015;48.888;9.226;2022-10-31T00:40:33;158430.31;;;12.68;100.00
7940;BME280;4015;48.888;9.226;2022-10-31T00:42:58;158400.91;;;12.57;100.00
7940;BME280;4015;48.888;9.226;2022-10-31T00:45:24;158400.91;;;12.57;100.00
7940;BME280;4015;48.888;9.226;2022-10-31T00:47:50;158394.53;;;12.54;100.00
7940;BME280;4015;48.888;9.226;2022-10-31T00:50:15;158435.47;;;12.71;100.00
7940;BME280;4015;48.888;9.226;2022-10-31T00:52:40;158417.56;;;12.63;100.00
7940;BME280;4015;48.888;9.226;2022-10-31T00:55:06;158400.91;;;12.57;100.00
7940;BME280;4015;48.888;9.226;2022-10-31T00:57:31;158380.44;;;12.49;100.00
7940;BME280;4015;48.888;9.226;2022-10-31T00:59:57;158353.56;;;12.38;100.00
7940;BME280;4015;48.888;9.226;2022-10-31T01:02:22;158370.25;;;12.45;100.00
7940;BME280;4015;48.888;9.226;2022-10-31T01:04:47;158358.72;;;12.40;100.00
7940;BME280;4015;48.888;9.226;2022-10-31T01:07:12;158366.38;;;12.43;100.00
7940;BME280;4015;48.888;9.226;2022-10-31T01:09:39;158329.31;;;12.28;100.00
7940;BME280;4015;48.888;9.226;2022-10-31T01:12:04;158306.25;;;12.19;100.00
7940;BME280;4015;48.888;9.226;2022-10-31T01:14:30;158297.34;;;12.15;100.00
7940;BME280;4015;48.888;9.226;2022-10-31T01:16:55;158285.81;;;12.11;100.00
7940;BME280;4015;48.888;9.226;2022-10-31T01:19:20;158296.06;;;12.15;100.00
7940;BME280;4015;48.888;9.226;2022-10-31T01:21:46;158301.16;;;12.17;100.00
7940;BME280;4015;48.888;9.226;2022-10-31T01:24:11;158255.13;;;11.99;100.00
7940;BME280;4015;48.888;9.226;2022-10-31T01:26:36;158260.28;;;12.01;100.00
7940;BME280;4015;48.888;9.226;2022-10-31T01:29:07;158287.09;;;12.11;100.00
7940;BME280;4015;48.888;9.226;2022-10-31T01:31:36;158297.34;;;12.15;100.00
7940;BME280;4015;48.888;9.226;2022-10-31T01:34:02;158333.13;;;12.30;100.00
7940;BME280;4015;48.888;9.226;2022-10-31T01:36:30;158334.41;;;12.30;100.00
7940;BME280;4015;48.888;9.226;2022-10-31T01:38:58;158347.19;;;12.35;100.00
7940;BME280;4015;48.888;9.226;2022-10-31T01:41:29;158365.09;;;12.42;100.00
7940;BME280;4015;48.888;9.226;2022-10-31T01:47:04;158347.19;;;12.35;100.00
7940;BME280;4015;48.888;9.226;2022-10-31T01:49:38;158344.66;;;12.34;100.00
7940;BME280;4015;48.888;9.226;2022-10-31T01:52:12;158358.72;;;12.40;100.00
7940;BME280;4015;48.888;9.226;2022-10-31T01:54:45;158302.44;;;12.18;100.00
7940;BME280;4015;48.888;9.226;2022-10-31T01:57:13;158288.38;;;12.12;100.00
7940;BME280;4015;48.888;9.226;2022-10-31T01:59:44;158258.94;;;12.00;100.00
7940;BME280;4015;48.888;9.226;2022-10-31T02:02:11;158287.09;;;12.11;100.00
7940;BME280;4015;48.888;9.226;2022-10-31T02:04:38;158288.38;;;12.12;100.00
7940;BME280;4015;48.888;9.226;2022-10-31T02:07:08;158321.59;;;12.25;100.00
7940;BME280;4015;48.888;9.226;2022-10-31T02:09:36;158331.84;;;12.29;100.00
7940;BME280;4015;48.888;9.226;2022-10-31T02:12:03;158342.09;;;12.33;100.00
7940;BME280;4015;48.888;9.226;2022-10-31T02:14:30;158334.41;;;12.30;100.00
7940;BME280;4015;48.888;9.226;2022-10-31T02:16:56;158326.75;;;12.27;100.00
7940;BME280;4015;48.888;9.226;2022-10-31T02:19:35;158324.22;;;12.26;100.00
7940;BME280;4015;48.888;9.226;2022-10-31T02:33:40;158325.47;;;12.27;100.00
7940;BME280;4015;48.888;9.226;2022-10-31T02:36:15;158317.78;;;12.24;100.00
7940;BME280;4015;48.888;9.226;2022-10-31T02:39:06;158301.16;;;12.17;100.00
7940;BME280;4015;48.888;9.226;2022-10-31T02:44:30;158308.84;;;12.20;100.00
7940;BME280;4015;48.888;9.226;2022-10-31T02:47:05;158258.94;;;12.00;100.00
7940;BME280;4015;48.888;9.226;2022-10-31T02:52:01;158274.31;;;12.06;100.00
7940;BME280;4015;48.888;9.226;2022-10-31T02:54:27;158257.69;;;12.00;100.00
7940;BME280;4015;48.888;9.226;2022-10-31T02:57:00;158264.09;;;12.02;100.00
7940;BME280;4015;48.888;9.226;2022-10-31T02:59:29;158285.81;;;12.11;100.00
7940;BME280;4015;48.888;9.226;2022-10-31T03:13:46;158178.38;;;11.68;100.00
7940;BME280;4015;48.888;9.226;2022-10-31T03:16:17;158193.72;;;11.74;100.00
7940;BME280;4015;48.888;9.226;2022-10-31T03:21:20;158212.97;;;11.82;100.00
7940;BME280;4015;48.888;9.226;2022-10-31T03:23:50;158229.59;;;11.88;100.00
7940;BME280;4015;48.888;9.226;2022-10-31T03:26:17;158227.00;;;11.87;100.00
7940;BME280;4015;48.888;9.226;2022-10-31T03:28:52;158191.16;;;11.73;100.00
7940;BME280;4015;48.888;9.226;2022-10-31T03:31:23;158160.47;;;11.61;100.00
7940;BME280;4015;48.888;9.226;2022-10-31T03:33:51;158165.63;;;11.63;100.00
7940;BME280;4015;48.888;9.226;2022-10-31T03:36:18;158192.44;;;11.74;100.00
7940;BME280;4015;48.888;9.226;2022-10-31T03:38:45;158218.06;;;11.84;100.00
7940;BME280;4015;48.888;9.226;2022-10-31T03:41:16;158209.06;;;11.80;100.00
7940;BME280;4015;48.888;9.226;2022-10-31T03:43:48;158195.00;;;11.75;99.90
7940;BME280;4015;48.888;9.226;2022-10-31T03:46:16;158197.59;;;11.76;99.64
7940;BME280;4015;48.888;9.226;2022-10-31T03:48:42;158182.25;;;11.70;100.00
7940;BME280;4015;48.888;9.226;2022-10-31T03:51:14;158210.38;;;11.81;100.00
7940;BME280;4015;48.888;9.226;2022-10-31T03:54:02;158219.34;;;11.84;100.00
7940;BME280;4015;48.888;9.226;2022-10-31T03:56:35;158218.06;;;11.84;100.00
7940;BME280;4015;48.888;9.226;2022-10-31T03:59:05;158206.50;;;11.79;100.00
7940;BME280;4015;48.888;9.226;2022-10-31T04:01:37;158214.25;;;11.82;99.77
7940;BME280;4015;48.888;9.226;2022-10-31T04:04:05;158203.97;;;11.78;99.44
7940;BME280;4015;48.888;9.226;2022-10-31T04:06:33;158178.38;;;11.68;100.00
7940;BME280;4015;48.888;9.226;2022-10-31T04:09:02;158202.69;;;11.78;99.91
7940;BME280;4015;48.888;9.226;2022-10-31T04:11:32;158223.16;;;11.86;99.36
7940;BME280;4015;48.888;9.226;2022-10-31T04:14:00;158209.06;;;11.80;99.03
7940;BME280;4015;48.888;9.226;2022-10-31T04:16:28;158172.00;;;11.66;99.49
7940;BME280;4015;48.888;9.226;2022-10-31T04:18:53;158125.97;;;11.47;100.00
7940;BME280;4015;48.888;9.226;2022-10-31T04:21:19;158120.88;;;11.45;100.00
7940;BME280;4015;48.888;9.226;2022-10-31T04:23:44;158132.34;;;11.50;100.00
7940;BME280;4015;48.888;9.226;2022-10-31T04:26:13;158147.69;;;11.56;99.46
7940;BME280;4015;48.888;9.226;2022-10-31T04:28:38;158128.53;;;11.48;99.70
7940;BME280;4015;48.888;9.226;2022-10-31T04:31:04;158117.00;;;11.44;99.70
7940;BME280;4015;48.888;9.226;2022-10-31T04:33:29;158103.00;;;11.38;100.00
7940;BME280;4015;48.888;9.226;2022-10-31T04:35:55;158129.81;;;11.49;100.00
7940;BME280;4015;48.888;9.226;2022-10-31T04:38:20;158129.81;;;11.49;99.54
7940;BME280;4015;48.888;9.226;2022-10-31T04:40:45;158113.19;;;11.42;99.49
7940;BME280;4015;48.888;9.226;2022-10-31T04:43:11;158125.97;;;11.47;99.25
7940;BME280;4015;48.888;9.226;2022-10-31T04:45:37;158148.97;;;11.56;98.69
7940;BME280;4015;48.888;9.226;2022-10-31T04:48:02;158118.34;;;11.44;98.63
7940;BME280;4015;48.888;9.226;2022-10-31T04:50:28;158105.53;;;11.39;98.92
7940;BME280;4015;48.888;9.226;2022-10-31T04:52:53;158091.47;;;11.33;99.13
7940;BME280;4015;48.888;9.226;2022-10-31T04:55:18;158088.94;;;11.32;98.98
7940;BME280;4015;48.888;9.226;2022-10-31T04:57:48;158090.22;;;11.33;98.88
7940;BME280;4015;48.888;9.226;2022-10-31T05:00:17;158068.44;;;11.24;99.28
7940;BME280;4015;48.888;9.226;2022-10-31T05:02:44;158049.28;;;11.17;99.71
7940;BME280;4015;48.888;9.226;2022-10-31T05:05:11;158048.03;;;11.16;99.62
7940;BME280;4015;48.888;9.226;2022-10-31T05:07:41;158050.56;;;11.17;99.33
7940;BME280;4015;48.888;9.226;2022-10-31T05:10:09;158041.66;;;11.14;99.09
7940;BME280;4015;48.888;9.226;2022-10-31T05:12:35;158035.22;;;11.11;99.43
7940;BME280;4015;48.888;9.226;2022-10-31T05:15:00;158030.13;;;11.09;99.52
7940;BME280;4015;48.888;9.226;2022-10-31T05:17:26;158016.06;;;11.03;99.26
7940;BME280;4015;48.888;9.226;2022-10-31T05:19:51;157994.38;;;10.95;98.98
7940;BME280;4015;48.888;9.226;2022-10-31T05:22:16;157995.66;;;10.95;99.12
7940;BME280;4015;48.888;9.226;2022-10-31T05:24:41;157993.09;;;10.94;99.06
7940;BME280;4015;48.888;9.226;2022-10-31T05:27:07;158000.75;;;10.97;99.52
7940;BME280;4015;48.888;9.226;2022-10-31T05:29:32;158022.44;;;11.06;99.32
7940;BME280;4015;48.888;9.226;2022-10-31T05:31:59;158007.13;;;11.00;99.14
7940;BME280;4015;48.888;9.226;2022-10-31T05:34:24;158016.06;;;11.03;99.16
7940;BME280;4015;48.888;9.226;2022-10-31T05:36:50;158019.91;;;11.05;99.33
7940;BME280;4015;48.888;9.226;2022-10-31T05:39:15;158046.75;;;11.16;99.18
7940;BME280;4015;48.888;9.226;2022-10-31T05:41:40;158053.13;;;11.18;98.92
7940;BME280;4015;48.888;9.226;2022-10-31T05:44:06;158046.75;;;11.16;99.07
7940;BME280;4015;48.888;9.226;2022-10-31T05:46:31;158019.91;;;11.05;99.45
7940;BME280;4015;48.888;9.226;2022-10-31T05:48:56;157972.63;;;10.86;99.95
7940;BME280;4015;48.888;9.226;2022-10-31T05:51:22;157947.09;;;10.76;100.00
7940;BME280;4015;48.888;9.226;2022-10-31T05:53:47;157948.38;;;10.76;100.00
7940;BME280;4015;48.888;9.226;2022-10-31T05:56:12;157924.09;;;10.67;100.00
7940;BME280;4015;48.888;9.226;2022-10-31T05:58:38;157947.09;;;10.76;100.00
7940;BME280;4015;48.888;9.226;2022-10-31T06:01:03;157952.19;;;10.78;99.63
7940;BME280;4015;48.888;9.226;2022-10-31T06:03:28;157958.56;;;10.80;99.61
7940;BME280;4015;48.888;9.226;2022-10-31T06:05:54;157953.47;;;10.78;99.70
7940;BME280;4015;48.888;9.226;2022-10-31T06:08:19;157948.38;;;10.76;99.94
7940;BME280;4015;48.888;9.226;2022-10-31T06:10:44;157973.91;;;10.87;99.61
7940;BME280;4015;48.888;9.226;2022-10-31T06:13:10;157967.53;;;10.84;99.10
7940;BME280;4015;48.888;9.226;2022-10-31T06:15:35;157968.81;;;10.85;99.02
7940;BME280;4015;48.888;9.226;2022-10-31T06:18:03;157938.13;;;10.72;99.06
7940;BME280;4015;48.888;9.226;2022-10-31T06:20:29;157927.91;;;10.68;99.63
7940;BME280;4015;48.888;9.226;2022-10-31T06:22:54;157926.63;;;10.68;99.70
7940;BME280;4015;48.888;9.226;2022-10-31T06:25:20;157963.72;;;10.83;99.15
7940;BME280;4015;48.888;9.226;2022-10-31T06:27:45;157971.34;;;10.86;98.50
7940;BME280;4015;48.888;9.226;2022-10-31T06:30:11;157982.84;;;10.90;98.35
7940;BME280;4015;48.888;9.226;2022-10-31T06:32:36;157991.81;;;10.94;98.25
7940;BME280;4015;48.888;9.226;2022-10-31T06:35:01;158005.84;;;10.99;98.63
7940;BME280;4015;48.888;9.226;2022-10-31T06:37:27;158004.56;;;10.99;98.84
7940;BME280;4015;48.888;9.226;2022-10-31T06:39:52;158021.16;;;11.05;98.70
7940;BME280;4015;48.888;9.226;2022-10-31T06:42:17;158037.78;;;11.12;98.51
7940;BME280;4015;48.888;9.226;2022-10-31T06:44:43;158060.81;;;11.21;98.12
7940;BME280;4015;48.888;9.226;2022-10-31T06:47:08;158096.59;;;11.35;97.66
7940;BME280;4015;48.888;9.226;2022-10-31T06:49:34;158067.19;;;11.24;97.79
7940;BME280;4015;48.888;9.226;2022-10-31T06:51:59;158132.34;;;11.50;97.17
7940;BME280;4015;48.888;9.226;2022-10-31T06:54:24;158159.22;;;11.60;96.83
7940;BME280;4015;48.888;9.226;2022-10-31T06:56:50;158172.00;;;11.66;96.46
7940;BME280;4015;48.888;9.226;2022-10-31T06:59:15;158179.66;;;11.69;96.22
7940;BME280;4015;48.888;9.226;2022-10-31T07:01:41;158214.25;;;11.82;96.08
7940;BME280;4015;48.888;9.226;2022-10-31T07:04:08;158206.50;;;11.79;95.76
7940;BME280;4015;48.888;9.226;2022-10-31T07:06:34;158220.63;;;11.85;95.52
7940;BME280;4015;48.888;9.226;2022-10-31T07:08:59;158242.34;;;11.94;95.50
7940;BME280;4015;48.888;9.226;2022-10-31T07:11:24;158227.00;;;11.87;95.87
7940;BME280;4015;48.888;9.226;2022-10-31T07:13:50;158244.94;;;11.95;95.94
7940;BME280;4015;48.888;9.226;2022-10-31T07:16:15;158274.31;;;12.06;95.17
7940;BME280;4015;48.888;9.226;2022-10-31T07:18:40;158279.44;;;12.08;95.37
7940;BME280;4015;48.888;9.226;2022-10-31T07:21:06;158371.53;;;12.45;94.36
7940;BME280;4015;48.888;9.226;2022-10-31T07:23:31;158418.84;;;12.64;93.11
7940;BME280;4015;48.888;9.226;2022-10-31T07:25:58;158435.47;;;12.71;92.27
7940;BME280;4015;48.888;9.226;2022-10-31T07:28:24;158446.94;;;12.75;92.27
7940;BME280;4015;48.888;9.226;2022-10-31T07:30:51;158412.41;;;12.61;92.52
7940;BME280;4015;48.888;9.226;2022-10-31T07:33:16;158421.41;;;12.65;92.65
7940;BME280;4015;48.888;9.226;2022-10-31T07:35:41;158413.69;;;12.62;92.54
7940;BME280;4015;48.888;9.226;2022-10-31T07:38:12;158422.66;;;12.65;93.43
7940;BME280;4015;48.888;9.226;2022-10-31T07:40:38;158476.38;;;12.87;93.07
7940;BME280;4015;48.888;9.226;2022-10-31T07:43:04;158501.97;;;12.97;92.89
7940;BME280;4015;48.888;9.226;2022-10-31T07:45:29;158517.31;;;13.03;92.12
7940;BME280;4015;48.888;9.226;2022-10-31T07:47:55;158509.63;;;13.00;91.83
7940;BME280;4015;48.888;9.226;2022-10-31T07:50:22;158554.41;;;13.18;91.05
7940;BME280;4015;48.888;9.226;2022-10-31T07:52:48;158569.81;;;13.24;91.55
7940;BME280;4015;48.888;9.226;2022-10-31T07:55:22;158623.59;;;13.45;90.43
7940;BME280;4015;48.888;9.226;2022-10-31T07:57:55;158691.41;;;13.72;90.50
7940;BME280;4015;48.888;9.226;2022-10-31T08:00:21;158700.34;;;13.76;89.74
7940;BME280;4015;48.888;9.226;2022-10-31T08:02:46;158678.59;;;13.67;88.43
7940;BME280;4015;48.888;9.226;2022-10-31T08:05:11;158663.25;;;13.61;89.22
7940;BME280;4015;48.888;9.226;2022-10-31T08:07:37;158746.41;;;13.94;88.90
7940;BME280;4015;48.888;9.226;2022-10-31T08:10:03;158809.16;;;14.19;87.39
7940;BME280;4015;48.888;9.226;2022-10-31T08:12:28;158755.41;;;13.98;88.12
7940;BME280;4015;48.888;9.226;2022-10-31T08:14:53;158796.38;;;14.14;87.74
7940;BME280;4015;48.888;9.226;2022-10-31T08:17:19;158798.94;;;14.15;87.83
7940;BME280;4015;48.888;9.226;2022-10-31T08:19:44;158900.13;;;14.55;86.98
7940;BME280;4015;48.888;9.226;2022-10-31T08:22:10;158967.97;;;14.82;85.29
7940;BME280;4015;48.888;9.226;2022-10-31T08:24:35;158953.88;;;14.77;85.95
7940;BME280;4015;48.888;9.226;2022-10-31T08:27:00;158924.47;;;14.65;84.90
7940;BME280;4015;48.888;9.226;2022-10-31T08:29:25;158905.22;;;14.57;86.81
7940;BME280;4015;48.888;9.226;2022-10-31T08:31:51;158935.97;;;14.70;86.19
7940;BME280;4015;48.888;9.226;2022-10-31T08:34:16;158941.13;;;14.72;86.41
7940;BME280;4015;48.888;9.226;2022-10-31T08:36:42;158903.94;;;14.57;86.07
7940;BME280;4015;48.888;9.226;2022-10-31T08:39:10;158905.22;;;14.57;85.50
7940;BME280;4015;48.888;9.226;2022-10-31T08:41:35;158929.59;;;14.67;84.58
7940;BME280;4015;48.888;9.226;2022-10-31T08:44:00;158969.25;;;14.83;85.73
7940;BME280;4015;48.888;9.226;2022-10-31T08:46:26;158965.44;;;14.81;85.53
7940;BME280;4015;48.888;9.226;2022-10-31T08:48:51;159025.63;;;15.05;84.32
7940;BME280;4015;48.888;9.226;2022-10-31T08:51:16;159076.88;;;15.26;84.63
7940;BME280;4015;48.888;9.226;2022-10-31T08:53:42;159052.53;;;15.16;84.89
7940;BME280;4015;48.888;9.226;2022-10-31T08:56:07;159099.94;;;15.35;83.90
7940;BME280;4015;48.888;9.226;2022-10-31T08:58:33;159147.34;;;15.54;83.06
7940;BME280;4015;48.888;9.226;2022-10-31T09:01:00;159182.00;;;15.68;82.75
7940;BME280;4015;48.888;9.226;2022-10-31T09:03:28;159153.75;;;15.56;83.87
7940;BME280;4015;48.888;9.226;2022-10-31T09:05:59;159157.56;;;15.58;82.13
7940;BME280;4015;48.888;9.226;2022-10-31T09:08:25;159242.22;;;15.91;81.29
7940;BME280;4015;48.888;9.226;2022-10-31T09:10:50;159274.25;;;16.04;80.83
7940;BME280;4015;48.888;9.226;2022-10-31T09:13:18;159237.06;;;15.89;80.63
7940;BME280;4015;48.888;9.226;2022-10-31T09:15:46;159328.06;;;16.26;78.95
7940;BME280;4015;48.888;9.226;2022-10-31T09:18:13;159260.16;;;15.99;80.62
7940;BME280;4015;48.888;9.226;2022-10-31T09:20:40;159285.75;;;16.09;80.82
7940;BME280;4015;48.888;9.226;2022-10-31T09:23:09;159319.13;;;16.22;79.99
7940;BME280;4015;48.888;9.226;2022-10-31T09:25:35;159316.53;;;16.21;80.64
7940;BME280;4015;48.888;9.226;2022-10-31T09:28:02;159363.97;;;16.40;79.56
7940;BME280;4015;48.888;9.226;2022-10-31T09:30:29;159449.94;;;16.74;78.88
7940;BME280;4015;48.888;9.226;2022-10-31T09:33:09;159401.16;;;16.55;79.14
7940;BME280;4015;48.888;9.226;2022-10-31T09:35:35;159389.63;;;16.50;78.67
7940;BME280;4015;48.888;9.226;2022-10-31T09:38:06;159440.94;;;16.70;79.39
7940;BME280;4015;48.888;9.226;2022-10-31T09:46:09;159534.53;;;17.08;78.10
7940;BME280;4015;48.888;9.226;2022-10-31T09:51:38;159544.81;;;17.12;78.15
7940;BME280;4015;48.888;9.226;2022-10-31T09:54:20;159626.91;;;17.44;76.66
7940;BME280;4015;48.888;9.226;2022-10-31T09:56:46;159644.84;;;17.51;77.14
7940;BME280;4015;48.888;9.226;2022-10-31T09:59:20;159674.38;;;17.63;75.72
7940;BME280;4015;48.888;9.226;2022-10-31T10:01:56;159729.59;;;17.85;75.98
7940;BME280;4015;48.888;9.226;2022-10-31T10:04:38;159647.41;;;17.52;76.28
7940;BME280;4015;48.888;9.226;2022-10-31T10:07:16;159656.41;;;17.56;76.05
7940;BME280;4015;48.888;9.226;2022-10-31T10:09:42;159658.97;;;17.57;77.40
7940;BME280;4015;48.888;9.226;2022-10-31T10:12:19;159795.03;;;18.11;74.87
7940;BME280;4015;48.888;9.226;2022-10-31T10:17:47;159842.53;;;18.30;73.89
7940;BME280;4015;48.888;9.226;2022-10-31T10:26:28;159972.19;;;18.81;72.68
7940;BME280;4015;48.888;9.226;2022-10-31T10:28:58;160176.41;;;19.62;69.71
7940;BME280;4015;48.888;9.226;2022-10-31T10:31:30;160072.31;;;19.21;70.48
7940;BME280;4015;48.888;9.226;2022-10-31T10:34:05;160110.88;;;19.36;71.36
7940;BME280;4015;48.888;9.226;2022-10-31T10:36:37;160136.50;;;19.47;70.41
7940;BME280;4015;48.888;9.226;2022-10-31T10:39:17;160256.03;;;19.94;69.50
7940;BME280;4015;48.888;9.226;2022-10-31T10:41:47;160175.13;;;19.62;69.43
7940;BME280;4015;48.888;9.226;2022-10-31T10:44:32;160195.66;;;19.70;69.96
7940;BME280;4015;48.888;9.226;2022-10-31T10:47:17;160177.69;;;19.63;69.92
7940;BME280;4015;48.888;9.226;2022-10-31T10:50:03;160209.78;;;19.76;70.27
7940;BME280;4015;48.888;9.226;2022-10-31T10:52:48;160209.78;;;19.76;71.37
7940;BME280;4015;48.888;9.226;2022-10-31T10:57:50;160194.38;;;19.70;71.01
7940;BME280;4015;48.888;9.226;2022-10-31T11:00:27;160257.31;;;19.94;68.76
7940;BME280;4015;48.888;9.226;2022-10-31T11:02:55;160216.19;;;19.78;70.20
7940;BME280;4015;48.888;9.226;2022-10-31T11:05:37;160275.28;;;20.02;70.19
7940;BME280;4015;48.888;9.226;2022-10-31T11:08:05;160194.38;;;19.70;71.74
7940;BME280;4015;48.888;9.226;2022-10-31T11:10:31;160119.81;;;19.40;72.26
7940;BME280;4015;48.888;9.226;2022-10-31T11:13:22;160213.63;;;19.77;71.84
7940;BME280;4015;48.888;9.226;2022-10-31T11:15:53;160186.66;;;19.66;72.01
7940;BME280;4015;48.888;9.226;2022-10-31T11:18:22;160055.63;;;19.14;71.70
7940;BME280;4015;48.888;9.226;2022-10-31T11:20:55;160054.34;;;19.14;72.06
7940;BME280;4015;48.888;9.226;2022-10-31T11:23:23;160060.75;;;19.17;72.58
7940;BME280;4015;48.888;9.226;2022-10-31T11:25:55;160045.34;;;19.10;73.49
7940;BME280;4015;48.888;9.226;2022-10-31T11:28:21;160038.94;;;19.08;74.16
7940;BME280;4015;48.888;9.226;2022-10-31T11:30:49;160017.13;;;18.99;72.78
7940;BME280;4015;48.888;9.226;2022-10-31T11:33:36;160028.66;;;19.04;72.80
7940;BME280;4015;48.888;9.226;2022-10-31T11:36:32;160040.22;;;19.08;73.73
7940;BME280;4015;48.888;9.226;2022-10-31T11:38:55;160144.25;;;19.50;72.16
7940;BME280;4015;48.888;9.226;2022-10-31T11:43:56;160240.63;;;19.88;71.91
7940;BME280;4015;48.888;9.226;2022-10-31T11:46:33;160158.38;;;19.55;70.99
7940;BME280;4015;48.888;9.226;2022-10-31T11:49:00;160166.09;;;19.58;71.07
7940;BME280;4015;48.888;9.226;2022-10-31T11:51:29;160185.38;;;19.66;72.13
7940;BME280;4015;48.888;9.226;2022-10-31T11:53:58;160285.59;;;20.06;69.86
7940;BME280;4015;48.888;9.226;2022-10-31T11:56:24;160253.47;;;19.93;70.65
7940;BME280;4015;48.888;9.226;2022-10-31T11:58:56;160095.47;;;19.30;71.33
7940;BME280;4015;48.888;9.226;2022-10-31T12:01:25;160094.19;;;19.30;71.99
7940;BME280;4015;48.888;9.226;2022-10-31T12:03:58;160153.22;;;19.53;72.00
7940;BME280;4015;48.888;9.226;2022-10-31T12:06:34;160059.47;;;19.16;71.04
7940;BME280;4015;48.888;9.226;2022-10-31T12:09:00;160130.13;;;19.44;71.34
7940;BME280;4015;48.888;9.226;2022-10-31T12:27:25;160241.91;;;19.88;70.26
7940;BME280;4015;48.888;9.226;2022-10-31T12:33:07;160363.94;;;20.37;69.66
7940;BME280;4015;48.888;9.226;2022-10-31T12:35:40;160415.38;;;20.57;68.54
7940;BME280;4015;48.888;9.226;2022-10-31T12:41:15;160434.63;;;20.65;67.99
7940;BME280;4015;48.888;9.226;2022-10-31T12:44:05;160387.09;;;20.46;67.26
7940;BME280;4015;48.888;9.226;2022-10-31T12:57:45;160162.22;;;19.57;71.82
7940;BME280;4015;48.888;9.226;2022-10-31T13:00:13;160151.94;;;19.53;72.27
7940;BME280;4015;48.888;9.226;2022-10-31T13:05:49;160086.44;;;19.27;73.64
7940;BME280;4015;48.888;9.226;2022-10-31T13:08:23;160083.88;;;19.26;73.03
7940;BME280;4015;48.888;9.226;2022-10-31T13:10:54;160051.78;;;19.13;74.49
7940;BME280;4015;48.888;9.226;2022-10-31T13:13:47;160010.69;;;18.97;73.69
7940;BME280;4015;48.888;9.226;2022-10-31T13:16:19;159961.91;;;18.77;74.66
7940;BME280;4015;48.888;9.226;2022-10-31T13:18:50;160017.13;;;18.99;75.79
7940;BME280;4015;48.888;9.226;2022-10-31T13:21:36;160010.69;;;18.97;75.13
7940;BME280;4015;48.888;9.226;2022-10-31T13:24:04;160006.84;;;18.95;75.08
7940;BME280;4015;48.888;9.226;2022-10-31T13:26:38;159988.88;;;18.88;73.79
7940;BME280;4015;48.888;9.226;2022-10-31T13:29:21;159997.84;;;18.92;75.43
7940;BME280;4015;48.888;9.226;2022-10-31T13:31:49;159959.34;;;18.76;76.92
7940;BME280;4015;48.888;9.226;2022-10-31T13:34:31;159952.94;;;18.74;78.92
7940;BME280;4015;48.888;9.226;2022-10-31T13:37:10;159949.06;;;18.72;77.45
7940;BME280;4015;48.888;9.226;2022-10-31T13:42:31;159965.75;;;18.79;74.98
7940;BME280;4015;48.888;9.226;2022-10-31T13:45:13;160035.09;;;19.06;74.73
7940;BME280;4015;48.888;9.226;2022-10-31T13:47:40;160173.84;;;19.61;74.72
7940;BME280;4015;48.888;9.226;2022-10-31T13:50:31;160347.25;;;20.30;72.65
7940;BME280;4015;48.888;9.226;2022-10-31T13:53:13;160551.56;;;21.11;69.23
7940;BME280;4015;48.888;9.226;2022-10-31T13:55:41;160682.78;;;21.63;65.23
7940;BME280;4015;48.888;9.226;2022-10-31T13:58:27;160870.53;;;22.38;64.09
7940;BME280;4015;48.888;9.226;2022-10-31T14:03:41;160996.63;;;22.87;61.70
7940;BME280;4015;48.888;9.226;2022-10-31T14:06:10;160949.00;;;22.69;61.92
7940;BME280;4015;48.888;9.226;2022-10-31T14:08:41;160779.22;;;22.01;65.64
7940;BME280;4015;48.888;9.226;2022-10-31T14:11:28;160659.59;;;21.54;65.39
7940;BME280;4015;48.888;9.226;2022-10-31T14:13:56;160529.75;;;21.02;67.69
7940;BME280;4015;48.888;9.226;2022-10-31T14:16:25;160429.53;;;20.63;71.79
7940;BME280;4015;48.888;9.226;2022-10-31T14:23:49;160253.47;;;19.93;71.61
7940;BME280;4015;48.888;9.226;2022-10-31T14:31:42;160164.81;;;19.58;74.82
7940;BME280;4015;48.888;9.226;2022-10-31T14:34:24;160141.69;;;19.49;76.21
7940;BME280;4015;48.888;9.226;2022-10-31T14:50:48;160033.81;;;19.06;77.00
7940;BME280;4015;48.888;9.226;2022-10-31T14:53:22;160010.69;;;18.97;78.98
7940;BME280;4015;48.888;9.226;2022-10-31T14:55:51;159990.16;;;18.89;78.50
7940;BME280;4015;48.888;9.226;2022-10-31T15:00:59;159923.38;;;18.62;80.20
7940;BME280;4015;48.888;9.226;2022-10-31T15:03:31;159886.13;;;18.47;80.94
7940;BME280;4015;48.888;9.226;2022-10-31T15:06:01;159864.31;;;18.39;82.05
7940;BME280;4015;48.888;9.226;2022-10-31T15:08:45;159834.78;;;18.27;81.79
7940;BME280;4015;48.888;9.226;2022-10-31T15:11:14;159813.00;;;18.18;82.69
7940;BME280;4015;48.888;9.226;2022-10-31T15:13:46;159816.84;;;18.20;82.21
7940;BME280;4015;48.888;9.226;2022-10-31T15:16:15;159816.84;;;18.20;83.07
7940;BME280;4015;48.888;9.226;2022-10-31T15:19:12;159810.44;;;18.17;82.52
7940;BME280;4015;48.888;9.226;2022-10-31T15:21:43;159797.59;;;18.12;82.67
7940;BME280;4015;48.888;9.226;2022-10-31T15:24:11;159775.75;;;18.03;82.68